sensor_id;sensor_type;location;lat;lon;timestamp;temperature;humidity
21787;DHT22;11055;50.870;4.316;2023-09-30T00:00:27;17.90;99.90
21787;DHT22;11055;50.870;4.316;2023-09-30T00:02:52;17.80;99.90
21787;DHT22;11055;50.870;4.316;2023-09-30T00:05:18;17.80;99.90
21787;DHT22;11055;50.870;4.316;2023-09-30T00:07:46;17.70;99.90
21787;DHT22;11055;50.870;4.316;2023-09-30T00:10:12;17.60;99.90
21787;DHT22;11055;50.870;4.316;2023-09-30T00:12:38;17.40;99.90
21787;DHT22;11055;50.870;4.316;2023-09-30T00:15:04;17.30;99.90
21787;DHT22;11055;50.870;4.316;2023-09-30T00:17:30;17.20;99.90
21787;DHT22;11055;50.870;4.316;2023-09-30T00:19:56;17.20;99.90
21787;DHT22;11055;50.870;4.316;2023-09-30T00:22:22;17.10;99.90
21787;DHT22;11055;50.870;4.316;2023-09-30T00:24:48;17.10;99.90
21787;DHT22;11055;50.870;4.316;2023-09-30T00:27:13;17.00;99.90
21787;DHT22;11055;50.870;4.316;2023-09-30T00:29:39;17.00;99.90
21787;DHT22;11055;50.870;4.316;2023-09-30T00:32:05;16.90;99.90
21787;DHT22;11055;50.870;4.316;2023-09-30T00:34:34;16.90;99.90
21787;DHT22;11055;50.870;4.316;2023-09-30T00:37:00;16.80;99.90
21787;DHT22;11055;50.870;4.316;2023-09-30T00:39:26;16.80;99.90
21787;DHT22;11055;50.870;4.316;2023-09-30T00:41:59;16.80;99.90
21787;DHT22;11055;50.870;4.316;2023-09-30T00:44:28;16.90;99.90
21787;DHT22;11055;50.870;4.316;2023-09-30T00:46:54;16.90;99.90
21787;DHT22;11055;50.870;4.316;2023-09-30T00:49:25;16.90;99.90
21787;DHT22;11055;50.870;4.316;2023-09-30T00:51:52;17.00;99.90
21787;DHT22;11055;50.870;4.316;2023-09-30T00:54:18;16.90;99.90
21787;DHT22;11055;50.870;4.316;2023-09-30T00:56:46;17.00;99.90
21787;DHT22;11055;50.870;4.316;2023-09-30T00:59:14;17.00;99.90
21787;DHT22;11055;50.870;4.316;2023-09-30T01:01:44;17.00;99.90
21787;DHT22;11055;50.870;4.316;2023-09-30T01:04:14;17.00;99.90
21787;DHT22;11055;50.870;4.316;2023-09-30T01:06:40;16.80;99.90
21787;DHT22;11055;50.870;4.316;2023-09-30T01:09:07;16.80;99.90
21787;DHT22;11055;50.870;4.316;2023-09-30T01:11:34;16.90;99.90
21787;DHT22;11055;50.870;4.316;2023-09-30T01:13:59;16.90;99.90
21787;DHT22;11055;50.870;4.316;2023-09-30T01:16:25;16.90;99.90
21787;DHT22;11055;50.870;4.316;2023-09-30T01:18:51;17.00;99.90
21787;DHT22;11055;50.870;4.316;2023-09-30T01:21:18;17.10;99.90
21787;DHT22;11055;50.870;4.316;2023-09-30T01:23:44;17.20;99.90
21787;DHT22;11055;50.870;4.316;2023-09-30T01:26:12;17.20;99.90
21787;DHT22;11055;50.870;4.316;2023-09-30T01:28:39;17.30;99.90
21787;DHT22;11055;50.870;4.316;2023-09-30T01:31:05;17.30;99.90
21787;DHT22;11055;50.870;4.316;2023-09-30T01:33:32;17.30;99.90
21787;DHT22;11055;50.870;4.316;2023-09-30T01:35:58;17.30;99.90
21787;DHT22;11055;50.870;4.316;2023-09-30T01:38:25;17.30;99.90
21787;DHT22;11055;50.870;4.316;2023-09-30T01:40:51;17.30;99.90
21787;DHT22;11055;50.870;4.316;2023-09-30T01:43:16;17.30;99.90
21787;DHT22;11055;50.870;4.316;2023-09-30T01:45:43;17.30;99.90
21787;DHT22;11055;50.870;4.316;2023-09-30T01:48:09;17.30;99.90
21787;DHT22;11055;50.870;4.316;2023-09-30T01:50:38;17.20;99.90
21787;DHT22;11055;50.870;4.316;2023-09-30T01:53:05;17.20;99.90
21787;DHT22;11055;50.870;4.316;2023-09-30T01:55:35;17.20;99.90
21787;DHT22;11055;50.870;4.316;2023-09-30T01:58:03;17.20;99.90
21787;DHT22;11055;50.870;4.316;2023-09-30T02:00:29;17.20;99.90
21787;DHT22;11055;50.870;4.316;2023-09-30T02:02:56;17.20;99.90
21787;DHT22;11055;50.870;4.316;2023-09-30T02:05:23;17.30;99.90
21787;DHT22;11055;50.870;4.316;2023-09-30T02:07:49;17.30;99.90
21787;DHT22;11055;50.870;4.316;2023-09-30T02:10:16;17.30;99.90
21787;DHT22;11055;50.870;4.316;2023-09-30T02:12:44;17.10;99.90
21787;DHT22;11055;50.870;4.316;2023-09-30T02:15:10;17.00;99.90
21787;DHT22;11055;50.870;4.316;2023-09-30T02:17:37;17.00;99.90
21787;DHT22;11055;50.870;4.316;2023-09-30T02:20:03;17.10;99.90
21787;DHT22;11055;50.870;4.316;2023-09-30T02:22:33;17.10;99.90
21787;DHT22;11055;50.870;4.316;2023-09-30T02:24:58;17.20;99.90
21787;DHT22;11055;50.870;4.316;2023-09-30T02:27:24;17.20;99.90
21787;DHT22;11055;50.870;4.316;2023-09-30T02:29:50;17.10;99.90
21787;DHT22;11055;50.870;4.316;2023-09-30T02:32:16;17.10;99.90
21787;DHT22;11055;50.870;4.316;2023-09-30T02:34:42;17.10;99.90
21787;DHT22;11055;50.870;4.316;2023-09-30T02:37:09;17.10;99.90
21787;DHT22;11055;50.870;4.316;2023-09-30T02:39:36;17.00;99.90
21787;DHT22;11055;50.870;4.316;2023-09-30T02:42:02;17.00;99.90
21787;DHT22;11055;50.870;4.316;2023-09-30T02:44:28;17.00;99.90
21787;DHT22;11055;50.870;4.316;2023-09-30T02:46:53;17.00;99.90
21787;DHT22;11055;50.870;4.316;2023-09-30T02:49:21;17.10;99.90
21787;DHT22;11055;50.870;4.316;2023-09-30T02:51:47;17.20;99.90
21787;DHT22;11055;50.870;4.316;2023-09-30T02:54:14;17.10;99.90
21787;DHT22;11055;50.870;4.316;2023-09-30T02:56:41;17.00;99.90
21787;DHT22;11055;50.870;4.316;2023-09-30T02:59:07;17.00;99.90
21787;DHT22;11055;50.870;4.316;2023-09-30T03:01:33;17.00;99.90
21787;DHT22;11055;50.870;4.316;2023-09-30T03:03:59;17.00;99.90
21787;DHT22;11055;50.870;4.316;2023-09-30T03:06:24;16.90;99.90
21787;DHT22;11055;50.870;4.316;2023-09-30T03:08:50;16.90;99.90
21787;DHT22;11055;50.870;4.316;2023-09-30T03:11:17;16.90;99.90
21787;DHT22;11055;50.870;4.316;2023-09-30T03:13:45;16.90;99.90
21787;DHT22;11055;50.870;4.316;2023-09-30T03:16:12;16.80;99.90
21787;DHT22;11055;50.870;4.316;2023-09-30T03:18:37;16.80;99.90
21787;DHT22;11055;50.870;4.316;2023-09-30T03:21:13;16.90;99.90
21787;DHT22;11055;50.870;4.316;2023-09-30T03:23:39;16.90;99.90
21787;DHT22;11055;50.870;4.316;2023-09-30T03:26:05;17.00;99.90
21787;DHT22;11055;50.870;4.316;2023-09-30T03:28:36;17.10;99.90
21787;DHT22;11055;50.870;4.316;2023-09-30T03:31:03;17.00;99.90
21787;DHT22;11055;50.870;4.316;2023-09-30T03:33:31;16.90;99.90
21787;DHT22;11055;50.870;4.316;2023-09-30T03:35:57;16.90;99.90
21787;DHT22;11055;50.870;4.316;2023-09-30T03:38:24;16.90;99.90
21787;DHT22;11055;50.870;4.316;2023-09-30T03:40:49;17.00;99.90
21787;DHT22;11055;50.870;4.316;2023-09-30T03:43:16;17.00;99.90
21787;DHT22;11055;50.870;4.316;2023-09-30T03:45:41;16.90;99.90
21787;DHT22;11055;50.870;4.316;2023-09-30T03:48:08;16.90;99.90
21787;DHT22;11055;50.870;4.316;2023-09-30T03:50:35;16.80;99.90
21787;DHT22;11055;50.870;4.316;2023-09-30T03:53:02;16.70;99.90
21787;DHT22;11055;50.870;4.316;2023-09-30T03:55:28;16.60;99.90
21787;DHT22;11055;50.870;4.316;2023-09-30T03:57:55;16.60;99.90
21787;DHT22;11055;50.870;4.316;2023-09-30T04:00:21;16.60;99.90
21787;DHT22;11055;50.870;4.316;2023-09-30T04:02:48;16.60;99.90
21787;DHT22;11055;50.870;4.316;2023-09-30T04:05:14;16.60;99.90
21787;DHT22;11055;50.870;4.316;2023-09-30T04:07:42;16.50;99.90
21787;DHT22;11055;50.870;4.316;2023-09-30T04:10:09;16.50;99.90
21787;DHT22;11055;50.870;4.316;2023-09-30T04:12:34;16.50;99.90
21787;DHT22;11055;50.870;4.316;2023-09-30T04:15:01;16.50;99.90
21787;DHT22;11055;50.870;4.316;2023-09-30T04:17:26;16.60;99.90
21787;DHT22;11055;50.870;4.316;2023-09-30T04:19:53;16.60;99.90
21787;DHT22;11055;50.870;4.316;2023-09-30T04:22:19;16.70;99.90
21787;DHT22;11055;50.870;4.316;2023-09-30T04:24:45;16.70;99.90
21787;DHT22;11055;50.870;4.316;2023-09-30T04:27:11;16.70;99.90
21787;DHT22;11055;50.870;4.316;2023-09-30T04:29:37;16.70;99.90
21787;DHT22;11055;50.870;4.316;2023-09-30T04:32:03;16.70;99.90
21787;DHT22;11055;50.870;4.316;2023-09-30T04:34:30;16.70;99.90
21787;DHT22;11055;50.870;4.316;2023-09-30T04:36:56;16.60;99.90
21787;DHT22;11055;50.870;4.316;2023-09-30T04:39:21;16.60;99.90
21787;DHT22;11055;50.870;4.316;2023-09-30T04:41:48;16.70;99.90
21787;DHT22;11055;50.870;4.316;2023-09-30T04:44:14;16.70;99.90
21787;DHT22;11055;50.870;4.316;2023-09-30T04:46:39;16.70;99.90
21787;DHT22;11055;50.870;4.316;2023-09-30T04:49:09;16.70;99.90
21787;DHT22;11055;50.870;4.316;2023-09-30T04:51:35;16.60;99.90
21787;DHT22;11055;50.870;4.316;2023-09-30T04:54:01;16.50;99.90
21787;DHT22;11055;50.870;4.316;2023-09-30T04:56:27;16.50;99.90
21787;DHT22;11055;50.870;4.316;2023-09-30T04:58:53;16.40;99.90
21787;DHT22;11055;50.870;4.316;2023-09-30T05:01:19;16.40;99.90
21787;DHT22;11055;50.870;4.316;2023-09-30T05:03:45;16.50;99.90
21787;DHT22;11055;50.870;4.316;2023-09-30T05:06:14;16.50;99.90
21787;DHT22;11055;50.870;4.316;2023-09-30T05:08:39;16.60;99.90
21787;DHT22;11055;50.870;4.316;2023-09-30T05:11:05;16.60;99.90
21787;DHT22;11055;50.870;4.316;2023-09-30T05:13:30;16.60;99.90
21787;DHT22;11055;50.870;4.316;2023-09-30T05:15:56;16.70;99.90
21787;DHT22;11055;50.870;4.316;2023-09-30T05:18:22;16.70;99.90
21787;DHT22;11055;50.870;4.316;2023-09-30T05:20:49;16.70;99.90
21787;DHT22;11055;50.870;4.316;2023-09-30T05:23:15;16.70;99.90
21787;DHT22;11055;50.870;4.316;2023-09-30T05:25:41;16.70;99.90
21787;DHT22;11055;50.870;4.316;2023-09-30T05:28:08;16.70;99.90
21787;DHT22;11055;50.870;4.316;2023-09-30T05:30:35;16.70;99.90
21787;DHT22;11055;50.870;4.316;2023-09-30T05:33:00;16.80;99.90
21787;DHT22;11055;50.870;4.316;2023-09-30T05:35:26;16.80;99.90
21787;DHT22;11055;50.870;4.316;2023-09-30T05:37:53;16.70;99.90
21787;DHT22;11055;50.870;4.316;2023-09-30T05:40:22;16.60;99.90
21787;DHT22;11055;50.870;4.316;2023-09-30T05:42:54;16.60;99.90
21787;DHT22;11055;50.870;4.316;2023-09-30T05:45:22;16.60;99.90
21787;DHT22;11055;50.870;4.316;2023-09-30T05:47:49;16.60;99.90
21787;DHT22;11055;50.870;4.316;2023-09-30T05:50:15;16.70;99.90
21787;DHT22;11055;50.870;4.316;2023-09-30T05:52:42;16.70;99.90
21787;DHT22;11055;50.870;4.316;2023-09-30T05:55:10;16.80;99.90
21787;DHT22;11055;50.870;4.316;2023-09-30T05:57:39;16.80;99.90
21787;DHT22;11055;50.870;4.316;2023-09-30T06:00:05;16.80;99.90
21787;DHT22;11055;50.870;4.316;2023-09-30T06:02:51;16.70;99.90
21787;DHT22;11055;50.870;4.316;2023-09-30T06:05:17;16.70;99.90
21787;DHT22;11055;50.870;4.316;2023-09-30T06:07:48;16.70;99.90
21787;DHT22;11055;50.870;4.316;2023-09-30T06:10:13;16.60;99.90
21787;DHT22;11055;50.870;4.316;2023-09-30T06:12:48;16.60;99.90
21787;DHT22;11055;50.870;4.316;2023-09-30T06:15:17;16.60;99.90
21787;DHT22;11055;50.870;4.316;2023-09-30T06:17:48;16.60;99.90
21787;DHT22;11055;50.870;4.316;2023-09-30T06:20:14;16.60;99.90
21787;DHT22;11055;50.870;4.316;2023-09-30T06:22:44;16.70;99.90
21787;DHT22;11055;50.870;4.316;2023-09-30T06:25:16;16.70;99.90
21787;DHT22;11055;50.870;4.316;2023-09-30T06:27:46;16.70;99.90
21787;DHT22;11055;50.870;4.316;2023-09-30T06:30:13;16.70;99.90
21787;DHT22;11055;50.870;4.316;2023-09-30T06:32:39;16.70;99.90
21787;DHT22;11055;50.870;4.316;2023-09-30T06:35:09;16.60;99.90
21787;DHT22;11055;50.870;4.316;2023-09-30T06:37:40;16.50;99.90
21787;DHT22;11055;50.870;4.316;2023-09-30T06:40:07;16.40;99.90
21787;DHT22;11055;50.870;4.316;2023-09-30T06:42:34;16.30;99.90
21787;DHT22;11055;50.870;4.316;2023-09-30T06:45:01;16.30;99.90
21787;DHT22;11055;50.870;4.316;2023-09-30T06:47:34;16.20;99.90
21787;DHT22;11055;50.870;4.316;2023-09-30T06:50:04;16.20;99.90
21787;DHT22;11055;50.870;4.316;2023-09-30T06:52:38;16.30;99.90
21787;DHT22;11055;50.870;4.316;2023-09-30T06:55:05;16.40;99.90
21787;DHT22;11055;50.870;4.316;2023-09-30T06:57:35;16.40;99.90
21787;DHT22;11055;50.870;4.316;2023-09-30T07:00:01;16.50;99.90
21787;DHT22;11055;50.870;4.316;2023-09-30T07:02:29;16.60;99.90
21787;DHT22;11055;50.870;4.316;2023-09-30T07:04:55;16.60;99.90
21787;DHT22;11055;50.870;4.316;2023-09-30T07:07:20;16.70;99.90
21787;DHT22;11055;50.870;4.316;2023-09-30T07:09:46;16.50;99.90
21787;DHT22;11055;50.870;4.316;2023-09-30T07:12:12;16.50;99.90
21787;DHT22;11055;50.870;4.316;2023-09-30T07:14:37;16.50;99.90
21787;DHT22;11055;50.870;4.316;2023-09-30T07:17:03;16.50;99.90
21787;DHT22;11055;50.870;4.316;2023-09-30T07:19:30;16.50;99.90
21787;DHT22;11055;50.870;4.316;2023-09-30T07:21:56;16.30;99.90
21787;DHT22;11055;50.870;4.316;2023-09-30T07:24:22;16.30;99.90
21787;DHT22;11055;50.870;4.316;2023-09-30T07:26:47;16.40;99.90
21787;DHT22;11055;50.870;4.316;2023-09-30T07:29:13;16.40;99.90
21787;DHT22;11055;50.870;4.316;2023-09-30T07:31:39;16.50;99.90
21787;DHT22;11055;50.870;4.316;2023-09-30T07:34:04;16.50;99.90
21787;DHT22;11055;50.870;4.316;2023-09-30T07:36:30;16.60;99.90
21787;DHT22;11055;50.870;4.316;2023-09-30T07:38:56;16.60;99.90
21787;DHT22;11055;50.870;4.316;2023-09-30T07:41:21;16.60;99.90
21787;DHT22;11055;50.870;4.316;2023-09-30T07:43:47;16.60;99.90
21787;DHT22;11055;50.870;4.316;2023-09-30T07:46:13;16.60;99.90
21787;DHT22;11055;50.870;4.316;2023-09-30T07:48:41;16.60;99.90
21787;DHT22;11055;50.870;4.316;2023-09-30T07:51:06;16.40;99.90
21787;DHT22;11055;50.870;4.316;2023-09-30T07:53:35;16.10;99.90
21787;DHT22;11055;50.870;4.316;2023-09-30T07:56:01;16.00;99.90
21787;DHT22;11055;50.870;4.316;2023-09-30T07:58:27;16.00;99.90
21787;DHT22;11055;50.870;4.316;2023-09-30T08:00:52;16.20;99.90
21787;DHT22;11055;50.870;4.316;2023-09-30T08:03:18;16.30;99.90
21787;DHT22;11055;50.870;4.316;2023-09-30T08:05:44;16.30;99.90
21787;DHT22;11055;50.870;4.316;2023-09-30T08:08:12;16.30;99.90
21787;DHT22;11055;50.870;4.316;2023-09-30T08:10:37;16.40;99.90
21787;DHT22;11055;50.870;4.316;2023-09-30T08:13:03;16.60;99.90
21787;DHT22;11055;50.870;4.316;2023-09-30T08:15:29;16.60;99.90
21787;DHT22;11055;50.870;4.316;2023-09-30T08:17:56;16.70;99.90
21787;DHT22;11055;50.870;4.316;2023-09-30T08:20:21;16.60;99.90
21787;DHT22;11055;50.870;4.316;2023-09-30T08:22:47;16.70;99.90
21787;DHT22;11055;50.870;4.316;2023-09-30T08:25:13;16.70;99.90
21787;DHT22;11055;50.870;4.316;2023-09-30T08:27:39;16.80;99.90
21787;DHT22;11055;50.870;4.316;2023-09-30T08:30:06;16.90;99.90
21787;DHT22;11055;50.870;4.316;2023-09-30T08:32:33;16.80;99.90
21787;DHT22;11055;50.870;4.316;2023-09-30T08:34:59;16.80;99.90
21787;DHT22;11055;50.870;4.316;2023-09-30T08:37:24;16.90;99.90
21787;DHT22;11055;50.870;4.316;2023-09-30T08:39:50;16.90;99.90
21787;DHT22;11055;50.870;4.316;2023-09-30T08:42:18;16.90;99.90
21787;DHT22;11055;50.870;4.316;2023-09-30T08:44:46;16.90;99.90
21787;DHT22;11055;50.870;4.316;2023-09-30T08:47:12;16.80;99.90
21787;DHT22;11055;50.870;4.316;2023-09-30T08:49:39;16.90;99.90
21787;DHT22;11055;50.870;4.316;2023-09-30T08:52:10;16.90;99.90
21787;DHT22;11055;50.870;4.316;2023-09-30T08:54:39;17.00;99.90
21787;DHT22;11055;50.870;4.316;2023-09-30T08:57:05;17.00;99.90
21787;DHT22;11055;50.870;4.316;2023-09-30T08:59:31;17.10;99.90
21787;DHT22;11055;50.870;4.316;2023-09-30T09:02:00;17.10;99.90
21787;DHT22;11055;50.870;4.316;2023-09-30T09:04:26;17.10;99.90
21787;DHT22;11055;50.870;4.316;2023-09-30T09:06:53;17.10;99.90
21787;DHT22;11055;50.870;4.316;2023-09-30T09:09:19;17.10;99.90
21787;DHT22;11055;50.870;4.316;2023-09-30T09:11:48;17.10;99.90
21787;DHT22;11055;50.870;4.316;2023-09-30T09:14:14;17.00;99.90
21787;DHT22;11055;50.870;4.316;2023-09-30T09:16:54;16.80;99.90
21787;DHT22;11055;50.870;4.316;2023-09-30T09:19:20;16.80;99.90
21787;DHT22;11055;50.870;4.316;2023-09-30T09:22:07;16.90;99.90
21787;DHT22;11055;50.870;4.316;2023-09-30T09:24:38;17.00;99.90
21787;DHT22;11055;50.870;4.316;2023-09-30T09:27:13;17.10;99.90
21787;DHT22;11055;50.870;4.316;2023-09-30T09:29:42;17.20;99.90
21787;DHT22;11055;50.870;4.316;2023-09-30T09:32:15;17.30;99.90
21787;DHT22;11055;50.870;4.316;2023-09-30T09:34:43;17.30;99.90
21787;DHT22;11055;50.870;4.316;2023-09-30T09:37:18;17.50;99.90
21787;DHT22;11055;50.870;4.316;2023-09-30T09:39:55;17.40;99.90
21787;DHT22;11055;50.870;4.316;2023-09-30T09:42:32;17.40;99.90
21787;DHT22;11055;50.870;4.316;2023-09-30T09:45:03;17.30;99.90
21787;DHT22;11055;50.870;4.316;2023-09-30T09:47:33;17.30;99.90
21787;DHT22;11055;50.870;4.316;2023-09-30T09:49:59;17.20;99.90
21787;DHT22;11055;50.870;4.316;2023-09-30T09:52:27;17.10;99.90
21787;DHT22;11055;50.870;4.316;2023-09-30T09:54:53;17.00;99.90
21787;DHT22;11055;50.870;4.316;2023-09-30T09:57:20;17.00;99.90
21787;DHT22;11055;50.870;4.316;2023-09-30T09:59:46;17.20;99.90
21787;DHT22;11055;50.870;4.316;2023-09-30T10:02:16;17.30;99.90
21787;DHT22;11055;50.870;4.316;2023-09-30T10:04:44;17.30;99.90
21787;DHT22;11055;50.870;4.316;2023-09-30T10:07:22;17.40;99.90
21787;DHT22;11055;50.870;4.316;2023-09-30T10:09:50;17.50;99.90
21787;DHT22;11055;50.870;4.316;2023-09-30T10:12:18;17.60;99.90
21787;DHT22;11055;50.870;4.316;2023-09-30T10:14:44;17.50;99.90
21787;DHT22;11055;50.870;4.316;2023-09-30T10:17:09;17.50;99.90
21787;DHT22;11055;50.870;4.316;2023-09-30T10:19:35;17.40;99.90
21787;DHT22;11055;50.870;4.316;2023-09-30T10:24:55;17.30;99.90
21787;DHT22;11055;50.870;4.316;2023-09-30T10:29:47;17.50;99.90
21787;DHT22;11055;50.870;4.316;2023-09-30T10:32:13;17.50;99.90
21787;DHT22;11055;50.870;4.316;2023-09-30T10:34:47;17.60;99.90
21787;DHT22;11055;50.870;4.316;2023-09-30T10:37:22;17.80;99.90
21787;DHT22;11055;50.870;4.316;2023-09-30T10:39:56;17.90;99.90
21787;DHT22;11055;50.870;4.316;2023-09-30T10:42:47;17.90;99.90
21787;DHT22;11055;50.870;4.316;2023-09-30T10:50:54;17.90;99.90
21787;DHT22;11055;50.870;4.316;2023-09-30T10:53:21;18.00;99.90
21787;DHT22;11055;50.870;4.316;2023-09-30T10:55:50;18.00;99.90
21787;DHT22;11055;50.870;4.316;2023-09-30T10:58:19;18.20;99.90
21787;DHT22;11055;50.870;4.316;2023-09-30T11:00:55;18.30;99.90
21787;DHT22;11055;50.870;4.316;2023-09-30T11:03:21;18.30;99.90
21787;DHT22;11055;50.870;4.316;2023-09-30T11:05:48;18.20;99.90
21787;DHT22;11055;50.870;4.316;2023-09-30T11:08:15;18.30;99.90
21787;DHT22;11055;50.870;4.316;2023-09-30T11:10:49;18.40;99.90
21787;DHT22;11055;50.870;4.316;2023-09-30T11:13:16;18.40;99.90
21787;DHT22;11055;50.870;4.316;2023-09-30T11:15:43;18.30;99.90
21787;DHT22;11055;50.870;4.316;2023-09-30T11:18:16;18.40;99.90
21787;DHT22;11055;50.870;4.316;2023-09-30T11:20:43;18.50;99.90
21787;DHT22;11055;50.870;4.316;2023-09-30T11:23:13;18.70;99.90
21787;DHT22;11055;50.870;4.316;2023-09-30T11:25:40;18.80;99.90
21787;DHT22;11055;50.870;4.316;2023-09-30T11:28:18;19.00;99.90
21787;DHT22;11055;50.870;4.316;2023-09-30T11:30:58;19.20;99.90
21787;DHT22;11055;50.870;4.316;2023-09-30T11:33:24;19.40;99.90
21787;DHT22;11055;50.870;4.316;2023-09-30T11:38:29;19.50;99.90
21787;DHT22;11055;50.870;4.316;2023-09-30T11:41:03;19.80;99.90
21787;DHT22;11055;50.870;4.316;2023-09-30T11:43:35;20.00;99.90
21787;DHT22;11055;50.870;4.316;2023-09-30T11:46:10;20.30;99.90
21787;DHT22;11055;50.870;4.316;2023-09-30T11:48:37;20.40;99.90
21787;DHT22;11055;50.870;4.316;2023-09-30T11:51:04;20.50;99.90
21787;DHT22;11055;50.870;4.316;2023-09-30T11:53:30;20.50;99.90
21787;DHT22;11055;50.870;4.316;2023-09-30T11:55:57;20.70;99.90
21787;DHT22;11055;50.870;4.316;2023-09-30T11:58:26;20.90;99.90
21787;DHT22;11055;50.870;4.316;2023-09-30T12:00:55;21.00;99.90
21787;DHT22;11055;50.870;4.316;2023-09-30T12:03:23;20.90;99.90
21787;DHT22;11055;50.870;4.316;2023-09-30T12:05:48;21.00;99.90
21787;DHT22;11055;50.870;4.316;2023-09-30T12:08:14;21.20;99.90
21787;DHT22;11055;50.870;4.316;2023-09-30T12:10:40;21.30;99.90
21787;DHT22;11055;50.870;4.316;2023-09-30T12:13:06;21.30;99.90
21787;DHT22;11055;50.870;4.316;2023-09-30T12:15:37;21.20;99.90
21787;DHT22;11055;50.870;4.316;2023-09-30T12:18:03;21.10;99.90
21787;DHT22;11055;50.870;4.316;2023-09-30T12:20:29;21.10;99.90
21787;DHT22;11055;50.870;4.316;2023-09-30T12:22:56;21.00;99.90
21787;DHT22;11055;50.870;4.316;2023-09-30T12:25:21;21.00;99.90
21787;DHT22;11055;50.870;4.316;2023-09-30T12:27:48;21.10;99.90
21787;DHT22;11055;50.870;4.316;2023-09-30T12:30:14;21.40;99.90
21787;DHT22;11055;50.870;4.316;2023-09-30T12:32:40;21.60;99.90
21787;DHT22;11055;50.870;4.316;2023-09-30T12:35:06;21.80;99.90
21787;DHT22;11055;50.870;4.316;2023-09-30T12:37:32;22.00;99.90
21787;DHT22;11055;50.870;4.316;2023-09-30T12:39:58;22.00;99.90
21787;DHT22;11055;50.870;4.316;2023-09-30T12:42:24;22.00;99.90
21787;DHT22;11055;50.870;4.316;2023-09-30T12:44:50;22.30;99.90
21787;DHT22;11055;50.870;4.316;2023-09-30T12:47:15;22.40;99.90
21787;DHT22;11055;50.870;4.316;2023-09-30T12:49:44;22.50;99.90
21787;DHT22;11055;50.870;4.316;2023-09-30T12:52:10;22.50;99.90
21787;DHT22;11055;50.870;4.316;2023-09-30T12:54:35;22.60;99.90
21787;DHT22;11055;50.870;4.316;2023-09-30T12:57:01;22.40;99.90
21787;DHT22;11055;50.870;4.316;2023-09-30T12:59:27;22.30;99.90
21787;DHT22;11055;50.870;4.316;2023-09-30T13:01:52;22.40;99.90
21787;DHT22;11055;50.870;4.316;2023-09-30T13:04:18;22.50;99.90
21787;DHT22;11055;50.870;4.316;2023-09-30T13:06:44;22.70;99.90
21787;DHT22;11055;50.870;4.316;2023-09-30T13:09:10;22.80;99.90
21787;DHT22;11055;50.870;4.316;2023-09-30T13:11:37;22.90;99.90
21787;DHT22;11055;50.870;4.316;2023-09-30T13:14:03;23.10;99.90
21787;DHT22;11055;50.870;4.316;2023-09-30T13:16:29;23.00;99.90
21787;DHT22;11055;50.870;4.316;2023-09-30T13:18:55;23.00;99.90
21787;DHT22;11055;50.870;4.316;2023-09-30T13:21:21;23.00;99.90
21787;DHT22;11055;50.870;4.316;2023-09-30T13:23:46;23.00;99.90
21787;DHT22;11055;50.870;4.316;2023-09-30T13:26:12;23.10;99.90
21787;DHT22;11055;50.870;4.316;2023-09-30T13:28:38;23.30;99.90
21787;DHT22;11055;50.870;4.316;2023-09-30T13:31:05;23.30;99.90
21787;DHT22;11055;50.870;4.316;2023-09-30T13:33:30;23.50;99.90
21787;DHT22;11055;50.870;4.316;2023-09-30T13:35:56;23.60;99.90
21787;DHT22;11055;50.870;4.316;2023-09-30T13:38:22;23.70;99.90
21787;DHT22;11055;50.870;4.316;2023-09-30T13:40:47;23.80;99.90
21787;DHT22;11055;50.870;4.316;2023-09-30T13:43:13;23.80;99.90
21787;DHT22;11055;50.870;4.316;2023-09-30T13:45:39;23.90;99.90
21787;DHT22;11055;50.870;4.316;2023-09-30T13:48:05;23.60;99.90
21787;DHT22;11055;50.870;4.316;2023-09-30T13:50:31;23.70;99.90
21787;DHT22;11055;50.870;4.316;2023-09-30T13:52:57;23.80;99.90
21787;DHT22;11055;50.870;4.316;2023-09-30T13:55:23;23.50;99.90
21787;DHT22;11055;50.870;4.316;2023-09-30T13:57:49;23.30;99.90
21787;DHT22;11055;50.870;4.316;2023-09-30T14:00:15;23.30;99.90
21787;DHT22;11055;50.870;4.316;2023-09-30T14:02:42;23.30;99.90
21787;DHT22;11055;50.870;4.316;2023-09-30T14:05:09;23.40;99.90
21787;DHT22;11055;50.870;4.316;2023-09-30T14:07:35;23.40;99.90
21787;DHT22;11055;50.870;4.316;2023-09-30T14:10:03;23.40;99.90
21787;DHT22;11055;50.870;4.316;2023-09-30T14:12:29;23.20;99.90
21787;DHT22;11055;50.870;4.316;2023-09-30T14:14:55;22.90;99.90
21787;DHT22;11055;50.870;4.316;2023-09-30T14:17:20;22.40;99.90
21787;DHT22;11055;50.870;4.316;2023-09-30T14:19:46;22.40;99.90
21787;DHT22;11055;50.870;4.316;2023-09-30T14:22:12;22.30;99.90
21787;DHT22;11055;50.870;4.316;2023-09-30T14:24:37;22.10;99.90
21787;DHT22;11055;50.870;4.316;2023-09-30T14:27:03;21.90;99.90
21787;DHT22;11055;50.870;4.316;2023-09-30T14:29:30;21.80;99.90
21787;DHT22;11055;50.870;4.316;2023-09-30T14:31:56;21.80;99.90
21787;DHT22;11055;50.870;4.316;2023-09-30T14:34:23;21.80;99.90
21787;DHT22;11055;50.870;4.316;2023-09-30T14:36:49;22.00;99.90
21787;DHT22;11055;50.870;4.316;2023-09-30T14:39:16;22.10;99.90
21787;DHT22;11055;50.870;4.316;2023-09-30T14:41:45;22.10;99.90
21787;DHT22;11055;50.870;4.316;2023-09-30T14:44:11;22.10;99.90
21787;DHT22;11055;50.870;4.316;2023-09-30T14:46:39;22.00;99.90
21787;DHT22;11055;50.870;4.316;2023-09-30T14:49:05;22.00;99.90
21787;DHT22;11055;50.870;4.316;2023-09-30T14:51:35;22.00;99.90
21787;DHT22;11055;50.870;4.316;2023-09-30T14:54:02;22.00;99.90
21787;DHT22;11055;50.870;4.316;2023-09-30T14:56:28;21.80;99.90
21787;DHT22;11055;50.870;4.316;2023-09-30T14:58:54;21.60;99.90
21787;DHT22;11055;50.870;4.316;2023-09-30T15:01:20;21.60;99.90
21787;DHT22;11055;50.870;4.316;2023-09-30T15:03:46;21.50;99.90
21787;DHT22;11055;50.870;4.316;2023-09-30T15:06:12;21.30;99.90
21787;DHT22;11055;50.870;4.316;2023-09-30T15:08:37;21.30;99.90
21787;DHT22;11055;50.870;4.316;2023-09-30T15:11:04;21.30;99.90
21787;DHT22;11055;50.870;4.316;2023-09-30T15:13:30;21.10;99.90
21787;DHT22;11055;50.870;4.316;2023-09-30T15:15:55;21.10;99.90
21787;DHT22;11055;50.870;4.316;2023-09-30T15:18:21;21.20;99.90
21787;DHT22;11055;50.870;4.316;2023-09-30T15:20:49;21.20;99.90
21787;DHT22;11055;50.870;4.316;2023-09-30T15:23:15;21.20;99.90
21787;DHT22;11055;50.870;4.316;2023-09-30T15:25:41;21.20;99.90
21787;DHT22;11055;50.870;4.316;2023-09-30T15:28:11;21.10;99.90
21787;DHT22;11055;50.870;4.316;2023-09-30T15:30:38;21.10;99.90
21787;DHT22;11055;50.870;4.316;2023-09-30T15:33:04;21.10;99.90
21787;DHT22;11055;50.870;4.316;2023-09-30T15:35:30;21.20;99.90
21787;DHT22;11055;50.870;4.316;2023-09-30T15:37:56;21.20;99.90
21787;DHT22;11055;50.870;4.316;2023-09-30T15:40:23;21.30;99.90
21787;DHT22;11055;50.870;4.316;2023-09-30T15:42:49;21.40;99.90